2 de julho de 2022

Hora Código Clima Temp. Visibilidade Tecto Vento METAR/SPECI
9:00 da tarde
V
77 °F 6¼ mi+ - 080° 080° 9 kt METAR LFMK 021900Z AUTO 08009KT 060V120 CAVOK 25/13 Q1018
8:30 da tarde
V
79 °F 6¼ mi+ - 080° 080° 10 kt METAR LFMK 021830Z AUTO 08010KT 060V130 CAVOK 26/13 Q1018
8:00 da tarde
V
81 °F 6¼ mi+ - 080° 080° 13 kt METAR LFMK 021800Z AUTO 08013KT CAVOK 27/13 Q1017 BECMG VRB03KT
7:30 da tarde
V
82 °F 6¼ mi+ - 070° 070° 11 kt METAR LFMK 021730Z AUTO 07011KT CAVOK 28/14 Q1017 NOSIG
7:00 da tarde
V
84 °F 6¼ mi+ - 070° 070° 13 kt METAR LFMK 021700Z AUTO 07013KT CAVOK 29/14 Q1017 NOSIG
6:30 da tarde
V
86 °F 6¼ mi+ - 070° 070° 13 kt METAR LFMK 021630Z AUTO 07013KT CAVOK 30/14 Q1017 NOSIG
6:00 da tarde
V
86 °F 6¼ mi+ - 080° 080° 14 kt METAR LFMK 021600Z AUTO 08014KT CAVOK 30/13 Q1017 NOSIG
5:30 da tarde
V
86 °F 6¼ mi+ - 090° 090° 12 kt METAR LFMK 021530Z AUTO 09012KT 060V130 CAVOK 30/11 Q1017 NOSIG
5:00 da tarde
V
90 °F 6¼ mi+ - 080° 080° 12 kt METAR LFMK 021500Z AUTO 08012KT CAVOK 32/09 Q1017 NOSIG
4:30 da tarde
V
88 °F 6¼ mi+ - 090° 090° 11 kt METAR LFMK 021430Z AUTO 09011KT 060V120 CAVOK 31/12 Q1017 NOSIG
4:00 da tarde
V
88 °F 6¼ mi+ - 080° 080° 12 kt METAR LFMK 021400Z AUTO 08012KT CAVOK 31/12 Q1017 NOSIG
3:30 da tarde
V
88 °F 6¼ mi+ - 080° 080° 11 kt METAR LFMK 021330Z AUTO 08011KT 050V110 CAVOK 31/12 Q1017 NOSIG
3:00 da tarde
V
86 °F 6¼ mi+ - 090° 090° 11 kt METAR LFMK 021300Z AUTO 09011KT 050V140 CAVOK 30/12 Q1017 NOSIG
2:30 da tarde
V
86 °F 6¼ mi+ - 080° 080° 9 kt METAR LFMK 021230Z AUTO 08009KT 040V140 CAVOK 30/13 Q1018 NOSIG
2:00 da tarde
V
84 °F 6¼ mi+ - 080° 080° 8 kt METAR LFMK 021200Z AUTO 08008KT 030V120 CAVOK 29/12 Q1018 NOSIG
1:30 da tarde
V
84 °F 6¼ mi+ - 090° 090° 8 kt METAR LFMK 021130Z AUTO 09008KT 060V140 CAVOK 29/12 Q1018 NOSIG
1:00 da tarde
V
82 °F 6¼ mi+ - 090° 090° 6 kt METAR LFMK 021100Z AUTO 09006KT 050V170 CAVOK 28/12 Q1019 NOSIG
12:30 da tarde
V
82 °F 6¼ mi+ - 080° 080° 7 kt METAR LFMK 021030Z AUTO 08007KT 040V190 CAVOK 28/12 Q1019 NOSIG
12:00 da tarde
V
81 °F 6¼ mi+ - 080° 080° 4 kt METAR LFMK 021000Z AUTO 08004KT 010V150 CAVOK 27/12 Q1019 NOSIG
11:30 da manhã
V
77 °F 6¼ mi+ - 080° 080° 4 kt METAR LFMK 020930Z AUTO 08004KT 340V150 CAVOK 25/10 Q1019 NOSIG
11:00 da manhã
V
77 °F 6¼ mi+ - Var Var 3 kt METAR LFMK 020900Z AUTO VRB03KT CAVOK 25/11 Q1019 NOSIG
10:30 da manhã
V
73 °F 6¼ mi+ - Var Var 2 kt METAR LFMK 020830Z AUTO VRB02KT CAVOK 23/12 Q1019 NOSIG
10:00 da manhã
V
72 °F 6¼ mi+ - Var Var 2 kt METAR LFMK 020800Z AUTO VRB02KT CAVOK 22/12 Q1019 NOSIG
9:30 da manhã
V
70 °F 6¼ mi+ - 260° 260° 2 kt METAR LFMK 020730Z AUTO 26002KT CAVOK 21/12 Q1020 BECMG 09010KT
9:00 da manhã
V
66 °F 6¼ mi+ - Var Var 2 kt METAR LFMK 020700Z AUTO VRB02KT CAVOK 19/12 Q1020 NOSIG
8:30 da manhã
V
61 °F 6¼ mi+ - 280° 280° 3 kt METAR LFMK 020630Z AUTO 28003KT 230V310 CAVOK 16/12 Q1020 BECMG 09010KT
8:00 da manhã
V
57 °F 6¼ mi+ - Var Var 3 kt METAR LFMK 020600Z AUTO VRB03KT CAVOK 14/12 Q1020 NOSIG
7:30 da manhã
V
55 °F 6¼ mi+ - Var Var 1 kt METAR LFMK 020530Z AUTO VRB01KT CAVOK 13/11 Q1020 NOSIG
7:00 da manhã
V
54 °F 6¼ mi+ - Var 000° 0 kt METAR LFMK 020500Z AUTO 00000KT CAVOK 12/11 Q1020 NOSIG
6:30 da manhã
V
52 °F 6¼ mi+ - Var Var 2 kt METAR LFMK 020430Z AUTO VRB02KT CAVOK 11/10 Q1020 NOSIG
6:00 da manhã
V
52 °F 6¼ mi+ - Var Var 2 kt METAR LFMK 020400Z AUTO VRB02KT CAVOK 11/10 Q1019 NOSIG
5:30 da manhã
V
54 °F 6¼ mi+ - Var Var 3 kt METAR LFMK 020330Z AUTO VRB03KT CAVOK 12/11 Q1019 NOSIG
5:00 da manhã
V
52 °F 6¼ mi+ - 190° 190° 3 kt METAR LFMK 020300Z AUTO 19003KT 150V230 CAVOK 11/10 Q1019 NOSIG
4:30 da manhã
V
54 °F 6¼ mi+ - Var Var 2 kt METAR LFMK 020230Z AUTO VRB02KT CAVOK 12/11 Q1019 NOSIG
4:00 da manhã
V
54 °F 6¼ mi+ - Var Var 3 kt METAR LFMK 020200Z AUTO VRB03KT CAVOK 12/10 Q1019
3:30 da manhã
V
54 °F 6¼ mi+ - Var Var 2 kt METAR LFMK 020130Z AUTO VRB02KT CAVOK 12/11 Q1019
3:00 da manhã
V
54 °F 6¼ mi+ - Var Var 2 kt METAR LFMK 020100Z AUTO VRB02KT CAVOK 12/10 Q1020
2:30 da manhã
V
55 °F 6¼ mi+ - Var Var 2 kt METAR LFMK 020030Z AUTO VRB02KT CAVOK 13/10 Q1020
2:00 da manhã
V
55 °F 6¼ mi+ - Var Var 2 kt METAR LFMK 020000Z AUTO VRB02KT CAVOK 13/10 Q1020
1:30 da manhã
V
57 °F 6¼ mi+ - Var 000° 0 kt METAR LFMK 012330Z AUTO 00000KT CAVOK 14/10 Q1020
1:00 da manhã
V
59 °F 6¼ mi+ - Var Var 3 kt METAR LFMK 012300Z AUTO VRB03KT CAVOK 15/10 Q1020
12:30 da manhã
V
61 °F 6¼ mi+ - 190° 190° 3 kt METAR LFMK 012230Z AUTO 19003KT 160V230 CAVOK 16/10 Q1020
12:00 da manhã
V
61 °F 6¼ mi+ - Var Var 3 kt METAR LFMK 012200Z AUTO VRB03KT CAVOK 16/10 Q1020

1 de julho de 2022

Hora Código Clima Temp. Visibilidade Tecto Vento METAR/SPECI
11:30 da tarde
V
61 °F 6¼ mi+ - 290° 290° 4 kt METAR LFMK 012130Z AUTO 29004KT 240V320 CAVOK 16/10 Q1020
11:00 da tarde
V
63 °F 6¼ mi+ - 280° 280° 3 kt METAR LFMK 012100Z AUTO 28003KT CAVOK 17/10 Q1020
10:30 da tarde
V
66 °F 6¼ mi+ - 250° 250° 3 kt METAR LFMK 012030Z AUTO 25003KT 230V290 CAVOK 19/09 Q1020
10:00 da tarde
I
68 °F 2⅞ mi - 250° 250° 5 kt METAR LFMK 012000Z AUTO 25005KT 9999 4600 NSC 20/09 Q1020
9:30 da tarde
V
70 °F 6¼ mi+ - 260° 260° 5 kt METAR LFMK 011930Z AUTO 26005KT 230V290 CAVOK 21/10 Q1020
9:00 da tarde
V
72 °F 6¼ mi+ - 270° 270° 7 kt METAR LFMK 011900Z AUTO 27007KT 240V300 CAVOK 22/10 Q1019
8:30 da tarde
V
73 °F 6¼ mi+ - 290° 290° 9 kt METAR LFMK 011830Z AUTO 29009KT 250V310 CAVOK 23/09 Q1019
8:00 da tarde
V
75 °F 6¼ mi+ - 270° 270° 9 kt METAR LFMK 011800Z AUTO 27009KT 240V300 CAVOK 24/09 Q1019 NOSIG
7:30 da tarde
V
75 °F 6¼ mi+ - 280° 280° 10 kt METAR LFMK 011730Z AUTO 28010KT 250V310 CAVOK 24/09 Q1019 NOSIG
7:00 da tarde
V
77 °F 6¼ mi+ - 280° 280° 10 kt METAR LFMK 011700Z AUTO 28010KT 230V290 CAVOK 25/09 Q1019 NOSIG
6:30 da tarde
V
77 °F 6¼ mi+ - 300° 300° 9 kt METAR LFMK 011630Z AUTO 30009KT 230V330 CAVOK 25/10 Q1019 NOSIG
6:00 da tarde
V
77 °F 6¼ mi+ - 280° 280° 9 kt METAR LFMK 011600Z AUTO 28009KT 240V310 CAVOK 25/10 Q1019 NOSIG
5:30 da tarde
V
77 °F 6¼ mi+ - 290° 290° 11 kt METAR LFMK 011530Z AUTO 29011KT 240V330 CAVOK 25/10 Q1019 NOSIG
5:00 da tarde
V
77 °F 6¼ mi+ - 270° 270° 12 kt METAR LFMK 011500Z AUTO 27012KT 240V320 CAVOK 25/10 Q1019 NOSIG
4:30 da tarde
V
77 °F 6¼ mi+ - 280° 280° 11 kt METAR LFMK 011430Z AUTO 28011KT 230V320 CAVOK 25/10 Q1019 NOSIG
4:00 da tarde
V
75 °F 6¼ mi+ - 280° 280° 12 kt METAR LFMK 011400Z AUTO 28012KT 250V310 CAVOK 24/10 Q1019 NOSIG
3:30 da tarde
V
77 °F 6¼ mi+ - 290° 290° 11 kt METAR LFMK 011330Z AUTO 29011KT 250V320 CAVOK 25/11 Q1019 NOSIG
3:00 da tarde
V
75 °F 6¼ mi+ - 280° 280° 10 kt METAR LFMK 011300Z AUTO 28010KT 230V350 CAVOK 24/11 Q1019 NOSIG
2:30 da tarde
V
75 °F 6¼ mi+ - 290° 290° 11 kt METAR LFMK 011230Z AUTO 29011KT 250V330 9999 FEW052 24/10 Q1020 NOSIG
2:00 da tarde
V
73 °F 6¼ mi+ - 260° 260° 9 kt METAR LFMK 011200Z AUTO 26009KT 220V300 9999 FEW050 23/10 Q1020 NOSIG
1:30 da tarde
V
72 °F 6¼ mi+ 4.700 ft 280° 280° 12 kt METAR LFMK 011130Z AUTO 28012KT 240V310 9999 BKN047 22/11 Q1020 NOSIG
1:00 da tarde
V
73 °F 6¼ mi+ 4.600 ft 280° 280° 9 kt METAR LFMK 011100Z AUTO 28009KT 230V310 9999 BKN046 23/12 Q1020 NOSIG
12:30 da tarde
V
68 °F 6¼ mi+ 4.400 ft 270° 270° 10 kt METAR LFMK 011030Z AUTO 27010KT 240V300 9999 BKN044 20/11 Q1020 NOSIG
12:00 da tarde
V
72 °F 6¼ mi+ 4.300 ft 300° 300° 10 kt METAR LFMK 011000Z AUTO 30010KT 230V320 9999 BKN043 22/11 Q1020 NOSIG
11:30 da manhã
V
70 °F 6¼ mi+ 4.100 ft 270° 270° 11 kt METAR LFMK 010930Z AUTO 27011KT 240V300 9999 BKN041 21/10 Q1020 NOSIG
11:00 da manhã
V
66 °F 6¼ mi+ 3.800 ft 280° 280° 12 kt METAR LFMK 010900Z AUTO 28012KT 9999 BKN038 19/11 Q1020 NOSIG
10:30 da manhã
V
68 °F 6¼ mi+ - 280° 280° 11 kt METAR LFMK 010830Z AUTO 28011KT 220V320 9999 FEW035 20/11 Q1020 NOSIG
10:00 da manhã
V
66 °F 6¼ mi+ - 290° 290° 13 kt METAR LFMK 010800Z AUTO 29013KT 250V310 CAVOK 19/11 Q1020 NOSIG
9:30 da manhã
V
64 °F 6¼ mi+ - 290° 290° 12 kt METAR LFMK 010730Z AUTO 29012KT 240V310 CAVOK 18/11 Q1020 NOSIG
9:00 da manhã
V
64 °F 6¼ mi+ - 290° 290° 11 kt METAR LFMK 010700Z AUTO 29011KT 250V320 9999 FEW066 18/12 Q1020 NOSIG
8:30 da manhã
V
61 °F 6¼ mi+ 6.800 ft 280° 280° 10 kt METAR LFMK 010630Z AUTO 28010KT 230V300 9999 OVC068 16/13 Q1020 NOSIG
8:00 da manhã
V
61 °F 6¼ mi+ 3.500 ft 270° 270° 10 kt METAR LFMK 010600Z AUTO 27010KT 240V300 9999 BKN035 OVC068 16/13 Q1020 NOSIG
7:30 da manhã
M
59 °F 6¼ mi+ 2.900 ft 260° 260° 9 kt METAR LFMK 010530Z AUTO 26009KT 230V290 9999 BKN029 OVC036 15/13 Q1020 NOSIG
7:00 da manhã
V
59 °F 6¼ mi+ 3.600 ft 270° 270° 8 kt METAR LFMK 010500Z AUTO 27008KT 9999 SCT028 OVC036 15/13 Q1020 NOSIG
6:30 da manhã
V
59 °F 6¼ mi+ 3.500 ft 270° 270° 8 kt METAR LFMK 010430Z AUTO 27008KT 240V300 9999 OVC035 15/13 Q1020 NOSIG
6:00 da manhã
V
57 °F 6¼ mi+ 3.500 ft 250° 250° 5 kt METAR LFMK 010400Z AUTO 25005KT 210V280 9999 BKN035 BKN072 14/13 Q1020 NOSIG
5:30 da manhã
V
57 °F 6¼ mi+ - 260° 260° 5 kt METAR LFMK 010330Z AUTO 26005KT 230V290 9999 FEW035 14/12 Q1020 NOSIG
5:00 da manhã
V
57 °F 6¼ mi+ - 260° 260° 6 kt METAR LFMK 010300Z AUTO 26006KT CAVOK 14/12 Q1020 NOSIG
4:30 da manhã
V
57 °F 6¼ mi+ - 270° 270° 8 kt METAR LFMK 010230Z AUTO 27008KT 9999 FEW076 14/12 Q1020
4:00 da manhã
V
57 °F 6¼ mi+ 13.000 ft 280° 280° 9 kt METAR LFMK 010200Z AUTO 28009KT 9999 FEW016 BKN130 14/12 Q1020
3:30 da manhã
V
59 °F 6¼ mi+ - 270° 270° 10 kt METAR LFMK 010130Z AUTO 27010KT CAVOK 15/12 Q1020
3:00 da manhã
V
59 °F 6¼ mi+ 14.000 ft 280° 280° 12 kt METAR LFMK 010100Z AUTO 28012KT 9999 FEW078 SCT120 OVC140 15/12 Q1020
2:30 da manhã
V
59 °F 6¼ mi+ 7.800 ft 270° 270° 11 kt METAR LFMK 010030Z AUTO 27011KT 9999 BKN078 OVC140 15/12 Q1020
2:00 da manhã
V
61 °F 6¼ mi+ 8.000 ft 270° 270° 13 kt METAR LFMK 010000Z AUTO 27013KT 9999 OVC080 16/12 Q1020
1:30 da manhã
V
61 °F 6¼ mi+ 8.000 ft 270° 270° 16 kt METAR LFMK 302330Z AUTO 27016KT 9999 OVC080 16/12 Q1020
1:00 da manhã
V
61 °F 6¼ mi+ 8.200 ft 270° 270° 15 kt METAR LFMK 302300Z AUTO 27015KT 9999 BKN082 16/13 Q1019
12:30 da manhã
V
61 °F 6¼ mi+ 7.800 ft 270° 270° 15 kt METAR LFMK 302230Z AUTO 27015KT 9999 BKN078 16/12 Q1019
12:00 da manhã
V
61 °F 6¼ mi+ 7.400 ft 270° 270° 14 kt METAR LFMK 302200Z AUTO 27014KT 9999 OVC074 16/13 Q1019

30 de junho de 2022

Hora Código Clima Temp. Visibilidade Tecto Vento METAR/SPECI
11:30 da tarde
V
63 °F 6¼ mi+ 7.400 ft 280° 280° 14 kt METAR LFMK 302130Z AUTO 28014KT 9999 OVC074 17/13 Q1019
11:00 da tarde
V
61 °F 6¼ mi+ 7.200 ft 270° 270° 13 kt METAR LFMK 302100Z AUTO 27013KT 9999 BKN072 16/13 Q1019
10:30 da tarde
V
61 °F 6¼ mi+ 7.200 ft 270° 270° 13 kt METAR LFMK 302030Z AUTO 27013KT 9999 BKN072 16/13 Q1018
10:00 da tarde
V
63 °F 6¼ mi+ - 270° 270° 10 kt METAR LFMK 302000Z AUTO 27010KT 230V290 9999 SCT072 17/13 Q1018
9:30 da tarde
V
63 °F 6¼ mi+ 7.000 ft 270° 270° 12 kt METAR LFMK 301930Z AUTO 27012KT 9999 BKN070 17/13 Q1017
9:00 da tarde
V
63 °F 6¼ mi+ 6.800 ft 270° 270° 10 kt METAR LFMK 301900Z AUTO 27010KT 230V290 9999 BKN068 BKN250 17/13 Q1017
8:30 da tarde
V
64 °F 6¼ mi+ 3.400 ft 270° 270° 10 kt METAR LFMK 301830Z AUTO 27010KT 9999 SCT028 BKN034 18/13 Q1017
8:00 da tarde
M
66 °F 6¼ mi+ 2.900 ft 280° 280° 12 kt METAR LFMK 301800Z AUTO 28012KT 9999 BKN029 BKN074 19/13 Q1017 TEMPO 28016G28KT
7:30 da tarde
V
66 °F 6¼ mi+ 3.000 ft 280° 280° 15 kt METAR LFMK 301730Z AUTO 28015KT 9999 BKN030 BKN074 19/13 Q1016 TEMPO 28016G28KT
7:00 da tarde
V
66 °F 6¼ mi+ 7.200 ft 270° 270° 11 kt METAR LFMK 301700Z AUTO 27011KT 240V300 9999 FEW024 OVC072 19/13 Q1016 TEMPO 28016G28KT
6:30 da tarde
V
66 °F 6¼ mi+ 4.200 ft 270° 270° 10 kt METAR LFMK 301630Z AUTO 27010KT 240V300 9999 FEW027 SCT034 BKN042 19/13 Q1017 TEMPO 28016G28KT
6:00 da tarde
M
66 °F 6¼ mi+ 2.700 ft 280° 280° 13 kt METAR LFMK 301600Z AUTO 28013KT 240V310 9999 BKN027 OVC035 19/13 Q1016 TEMPO 28016G28KT
5:30 da tarde
M
66 °F 6¼ mi+ 2.800 ft 280° 280° 12 kt METAR LFMK 301530Z AUTO 28012KT 9999 BKN028 OVC035 19/13 Q1016 TEMPO 28016G28KT
5:00 da tarde
V
66 °F 6¼ mi+ 3.100 ft 270° 270° 11 kt METAR LFMK 301500Z AUTO 27011KT 240V300 9999 BKN031 OVC037 19/13 Q1016 TEMPO 28016G28KT
Dados mais antigos

Baixe nosso aplicativo

Fácil acesso a todas as condições meteorológicas da aviação no seu celular e no seu tablet.
Com muitas características não disponíveis no site, como suporte offline e uma lista pessoal de aeroportos.

Nós e terceiros acompanhamos seu comportamento na internet em nosso site com cookies. Se você continuar, nós assumimos que você concorda com nossa política de cookies. Saiba mais